createdAt,value
2015-09-09T00:00:08.633Z,73989
2015-09-09T00:00:20.320Z,73994
2015-09-09T00:00:32.711Z,73987
2015-09-09T00:00:45.103Z,73993
2015-09-09T00:00:57.510Z,73984
2015-09-09T00:01:09.916Z,73991
2015-09-09T00:01:22.416Z,73987
2015-09-09T00:01:34.838Z,73989
2015-09-09T00:01:47.277Z,73997
2015-09-09T00:01:59.715Z,73985
2015-09-09T00:02:12.137Z,73992
2015-09-09T00:02:24.559Z,73986
2015-09-09T00:02:36.965Z,73991
2015-09-09T00:02:49.389Z,73989
2015-09-09T00:03:01.779Z,73986
2015-09-09T00:03:14.186Z,73993
2015-09-09T00:03:26.576Z,73990
2015-09-09T00:03:38.982Z,73991
2015-09-09T00:03:51.390Z,73986
2015-09-09T00:04:03.796Z,73996
2015-09-09T00:04:16.265Z,73982
2015-09-09T00:04:28.718Z,73985
2015-09-09T00:04:41.108Z,73992
2015-09-09T00:04:53.518Z,73987
2015-09-09T00:05:05.908Z,73993
2015-09-09T00:05:18.299Z,73984
2015-09-09T00:05:30.690Z,73978
2015-09-09T00:05:43.159Z,73981
2015-09-09T00:05:55.550Z,73986
2015-09-09T00:06:07.956Z,73985
2015-09-09T00:06:20.378Z,73988
2015-09-09T00:06:32.816Z,73982
2015-09-09T00:06:45.303Z,73989
2015-09-09T00:06:57.694Z,73990
2015-09-09T00:07:10.084Z,73983
2015-09-09T00:07:22.490Z,73990
2015-09-09T00:07:34.178Z,73987
2015-09-09T00:07:46.585Z,73988
2015-09-09T00:07:59.023Z,73976
2015-09-09T00:08:11.429Z,73980
2015-09-09T00:08:23.835Z,73985
2015-09-09T00:08:36.257Z,73984
2015-09-09T00:08:48.682Z,73989
2015-09-09T00:09:01.119Z,73981
2015-09-09T00:09:13.541Z,73990
2015-09-09T00:09:25.994Z,73987
2015-09-09T00:09:38.510Z,73989
2015-09-09T00:09:50.902Z,73982
2015-09-09T00:10:03.292Z,73986
2015-09-09T00:10:15.699Z,73981
2015-09-09T00:10:28.089Z,73987
2015-09-09T00:10:40.495Z,73984
2015-09-09T00:10:52.951Z,73985
2015-09-09T00:11:05.388Z,73978
2015-09-09T00:11:17.826Z,73983
2015-09-09T00:11:30.263Z,73974
2015-09-09T00:11:42.763Z,73981
2015-09-09T00:11:55.188Z,73982
2015-09-09T00:12:07.579Z,73980
2015-09-09T00:12:19.985Z,73979
2015-09-09T00:12:32.375Z,73981
2015-09-09T00:12:44.875Z,73983
2015-09-09T00:12:57.283Z,73974
2015-09-09T00:13:09.673Z,73984
2015-09-09T00:13:21.376Z,73975
2015-09-09T00:13:33.783Z,73978
2015-09-09T00:13:46.236Z,73985
2015-09-09T00:13:58.722Z,73972
2015-09-09T00:14:11.207Z,73984
2015-09-09T00:14:23.613Z,73975
2015-09-09T00:14:36.003Z,73987
2015-09-09T00:14:48.394Z,73982
2015-09-09T00:15:00.787Z,73983
2015-09-09T00:15:13.255Z,73984
2015-09-09T00:15:24.943Z,73976
2015-09-09T00:15:37.334Z,73979
2015-09-09T00:15:49.755Z,73976
2015-09-09T00:16:02.180Z,73973
2015-09-09T00:16:14.602Z,73976
2015-09-09T00:16:27.040Z,73975
2015-09-09T00:16:38.774Z,73979
2015-09-09T00:16:51.180Z,73981
2015-09-09T00:17:03.572Z,73980
2015-09-09T00:17:15.963Z,73979
2015-09-09T00:17:28.369Z,73974
2015-09-09T00:17:40.822Z,73977
2015-09-09T00:17:53.213Z,73970
2015-09-09T00:18:05.621Z,73975
2015-09-09T00:18:18.027Z,73974
2015-09-09T00:18:30.449Z,73973
2015-09-09T00:18:42.871Z,73972
2015-09-09T00:18:55.340Z,73970
2015-09-09T00:19:07.076Z,73972
2015-09-09T00:19:19.467Z,73979
2015-09-09T00:19:31.873Z,73974
2015-09-09T00:19:44.310Z,73981
2015-09-09T00:19:56.701Z,73973
2015-09-09T00:20:09.094Z,73973
2015-09-09T00:20:21.500Z,73976
2015-09-09T00:20:33.890Z,73969
2015-09-09T00:20:46.312Z,73971
2015-09-09T00:20:58.719Z,73963
2015-09-09T00:21:11.236Z,73972
2015-09-09T00:21:23.705Z,73977
2015-09-09T00:21:36.127Z,73974
2015-09-09T00:21:48.533Z,73980
2015-09-09T00:22:00.955Z,73973
2015-09-09T00:22:13.348Z,73977
2015-09-09T00:22:25.754Z,73972
2015-09-09T00:22:38.144Z,73968
2015-09-09T00:22:50.551Z,73971
2015-09-09T00:23:02.957Z,73969
2015-09-09T00:23:15.381Z,73979
2015-09-09T00:23:27.803Z,73977
2015-09-09T00:23:40.225Z,73981
2015-09-09T00:23:52.662Z,73972
2015-09-09T00:24:05.068Z,73973
2015-09-09T00:24:17.461Z,73976
2015-09-09T00:24:29.852Z,73969
2015-09-09T00:24:42.242Z,73961
2015-09-09T00:24:54.633Z,73969
2015-09-09T00:25:07.023Z,73967
2015-09-09T00:25:19.447Z,73976
2015-09-09T00:25:31.838Z,73971
2015-09-09T00:25:44.275Z,73973
2015-09-09T00:25:56.697Z,73978
2015-09-09T00:26:09.137Z,73973
2015-09-09T00:26:21.559Z,73976
2015-09-09T00:26:33.981Z,73967
2015-09-09T00:26:46.387Z,73971
2015-09-09T00:26:58.793Z,73969
2015-09-09T00:27:11.201Z,73974
2015-09-09T00:27:23.623Z,73976
2015-09-09T00:27:36.014Z,73972
2015-09-09T00:27:48.420Z,73978
2015-09-09T00:28:00.826Z,73966
2015-09-09T00:28:13.266Z,73975
2015-09-09T00:28:25.766Z,73967
2015-09-09T00:28:37.485Z,73966
2015-09-09T00:28:49.906Z,73969
2015-09-09T00:29:02.297Z,73974
2015-09-09T00:29:14.689Z,73978
2015-09-09T00:29:27.079Z,73970
2015-09-09T00:29:39.470Z,73964
2015-09-09T00:29:51.861Z,73968
2015-09-09T00:30:04.267Z,73971
2015-09-09T00:30:16.660Z,73973
2015-09-09T00:30:29.082Z,73969
2015-09-09T00:30:41.489Z,73972
2015-09-09T00:30:53.926Z,73963
2015-09-09T00:31:06.348Z,73968
2015-09-09T00:31:18.771Z,73960
2015-09-09T00:31:31.177Z,73966
2015-09-09T00:31:43.583Z,73976
2015-09-09T00:31:55.255Z,73973
2015-09-09T00:32:07.646Z,73974
2015-09-09T00:32:20.039Z,73968
2015-09-09T00:32:32.446Z,73975
2015-09-09T00:32:44.852Z,73962
2015-09-09T00:32:57.258Z,73961
2015-09-09T00:33:09.680Z,73971
2015-09-09T00:33:22.135Z,73968
2015-09-09T00:33:34.557Z,73981
2015-09-09T00:33:46.995Z,73972
2015-09-09T00:33:59.401Z,73976
2015-09-09T00:34:11.807Z,73975
2015-09-09T00:34:24.199Z,73974
2015-09-09T00:34:36.589Z,73975
2015-09-09T00:34:48.996Z,73966
2015-09-09T00:35:01.386Z,73976
2015-09-09T00:35:13.777Z,73967
2015-09-09T00:35:26.186Z,73970
2015-09-09T00:35:38.608Z,73962
2015-09-09T00:35:51.045Z,73967
2015-09-09T00:36:03.483Z,73970
2015-09-09T00:36:15.905Z,73966
2015-09-09T00:36:28.312Z,73969
2015-09-09T00:36:40.703Z,73959
2015-09-09T00:36:53.125Z,73972
2015-09-09T00:37:05.515Z,73966
2015-09-09T00:37:17.906Z,73960
2015-09-09T00:37:30.299Z,73971
2015-09-09T00:37:42.706Z,73963
2015-09-09T00:37:55.112Z,73974
2015-09-09T00:38:07.518Z,73968
2015-09-09T00:38:19.940Z,73958
2015-09-09T00:38:32.379Z,73962
2015-09-09T00:38:44.785Z,73958
2015-09-09T00:38:57.191Z,73964
2015-09-09T00:39:09.613Z,73959
2015-09-09T00:39:21.988Z,73966
2015-09-09T00:39:34.396Z,73963
2015-09-09T00:39:46.787Z,73958
2015-09-09T00:39:59.177Z,73958
2015-09-09T00:40:11.584Z,73958
2015-09-09T00:40:23.974Z,73958
2015-09-09T00:40:36.399Z,73959
2015-09-09T00:40:48.805Z,73965
2015-09-09T00:41:01.243Z,73956
2015-09-09T00:41:13.680Z,73965
2015-09-09T00:41:26.196Z,73957
2015-09-09T00:41:38.620Z,73958
2015-09-09T00:41:51.026Z,73956
2015-09-09T00:42:03.417Z,73960
2015-09-09T00:42:15.807Z,73970
2015-09-09T00:42:28.229Z,73961
2015-09-09T00:42:40.668Z,73958
2015-09-09T00:42:53.058Z,73960
2015-09-09T00:43:05.480Z,73960
2015-09-09T00:43:17.918Z,73969
2015-09-09T00:43:30.340Z,73963
2015-09-09T00:43:42.764Z,73968
2015-09-09T00:43:55.185Z,73961
2015-09-09T00:44:07.623Z,73958
2015-09-09T00:44:20.045Z,73954
2015-09-09T00:44:32.514Z,73956
2015-09-09T00:44:44.937Z,73961
2015-09-09T00:44:57.344Z,73959
2015-09-09T00:45:09.734Z,73957
2015-09-09T00:45:22.109Z,73959
2015-09-09T00:45:34.609Z,73955
2015-09-09T00:45:47.111Z,73961
2015-09-09T00:45:59.518Z,73952
2015-09-09T00:46:11.955Z,73966
2015-09-09T00:46:24.393Z,73956
2015-09-09T00:46:36.660Z,73949
2015-09-09T00:46:49.082Z,73962
2015-09-09T00:47:01.598Z,73957
2015-09-09T00:47:13.988Z,73964
2015-09-09T00:47:26.223Z,73958
2015-09-09T00:47:38.631Z,73949
2015-09-09T00:47:51.037Z,73961
2015-09-09T00:48:02.725Z,73953
2015-09-09T00:48:15.115Z,73962
2015-09-09T00:48:26.818Z,73954
2015-09-09T00:48:39.274Z,73959
2015-09-09T00:48:50.992Z,73950
2015-09-09T00:49:03.430Z,73952
2015-09-09T00:49:15.867Z,73946
2015-09-09T00:49:28.305Z,73950
2015-09-09T00:49:40.729Z,73954
2015-09-09T00:49:53.151Z,73954
2015-09-09T00:50:05.604Z,73963
2015-09-09T00:50:17.994Z,73951
2015-09-09T00:50:30.401Z,73956
2015-09-09T00:50:42.824Z,73953
2015-09-09T00:50:55.293Z,73946
2015-09-09T00:51:07.699Z,73961
2015-09-09T00:51:20.106Z,73943
2015-09-09T00:51:32.528Z,73957
2015-09-09T00:51:44.982Z,73957
2015-09-09T00:51:57.404Z,73961
2015-09-09T00:52:09.810Z,73958
2015-09-09T00:52:22.200Z,73946
2015-09-09T00:52:34.607Z,73956
2015-09-09T00:52:47.000Z,73952
2015-09-09T00:52:59.407Z,73958
2015-09-09T00:53:11.828Z,73948
2015-09-09T00:53:24.219Z,73953
2015-09-09T00:53:36.641Z,73944
2015-09-09T00:53:49.065Z,73940
2015-09-09T00:54:01.518Z,73952
2015-09-09T00:54:14.002Z,73956
2015-09-09T00:54:26.409Z,73959
2015-09-09T00:54:38.799Z,73956
2015-09-09T00:54:51.191Z,73950
2015-09-09T00:55:03.581Z,73953
2015-09-09T00:55:15.988Z,73946
2015-09-09T00:55:28.410Z,73958
2015-09-09T00:55:40.847Z,73953
2015-09-09T00:55:53.256Z,73946
2015-09-09T00:56:05.663Z,73949
2015-09-09T00:56:18.100Z,73954
2015-09-09T00:56:30.522Z,73952
2015-09-09T00:56:42.959Z,73946
2015-09-09T00:56:55.415Z,73960
2015-09-09T00:57:07.805Z,73954
2015-09-09T00:57:20.243Z,73955
2015-09-09T00:57:32.633Z,73956
2015-09-09T00:57:45.024Z,73948
2015-09-09T00:57:57.432Z,73954
2015-09-09T00:58:09.823Z,73947
2015-09-09T00:58:22.229Z,73953
2015-09-09T00:58:34.635Z,73944
2015-09-09T00:58:47.073Z,73950
2015-09-09T00:58:59.528Z,73954
2015-09-09T00:59:11.965Z,73958
2015-09-09T00:59:24.450Z,73955
2015-09-09T00:59:36.840Z,73954
2015-09-09T00:59:49.247Z,73957
2015-09-09T01:00:01.732Z,73947
2015-09-09T01:00:14.201Z,73954
2015-09-09T01:00:26.591Z,73951
2015-09-09T01:00:39.013Z,73948
2015-09-09T01:00:51.435Z,73945
2015-09-09T01:01:03.844Z,73948
2015-09-09T01:01:16.298Z,73952
2015-09-09T01:01:28.704Z,73956
2015-09-09T01:01:41.001Z,73953
2015-09-09T01:01:53.438Z,73949
2015-09-09T01:02:05.846Z,73953
2015-09-09T01:02:18.237Z,73955
2015-09-09T01:02:30.628Z,73951
2015-09-09T01:02:43.050Z,73956
2015-09-09T01:02:55.456Z,73946
2015-09-09T01:03:07.895Z,73947
2015-09-09T01:03:20.333Z,73947
2015-09-09T01:03:32.770Z,73949
2015-09-09T01:03:45.239Z,73949
2015-09-09T01:03:57.630Z,73948
2015-09-09T01:04:10.021Z,73952
2015-09-09T01:04:22.428Z,73945
2015-09-09T01:04:34.818Z,73952
2015-09-09T01:04:47.209Z,73949
2015-09-09T01:04:59.599Z,73948
2015-09-09T01:05:12.086Z,73951
2015-09-09T01:05:24.492Z,73947
2015-09-09T01:05:36.914Z,73949
2015-09-09T01:05:49.367Z,73949
2015-09-09T01:06:01.633Z,73956
2015-09-09T01:06:14.057Z,73947
2015-09-09T01:06:26.447Z,73957
2015-09-09T01:06:38.869Z,73948
2015-09-09T01:06:51.275Z,73953
2015-09-09T01:07:03.666Z,73955
2015-09-09T01:07:16.059Z,73958
2015-09-09T01:07:28.465Z,73948
2015-09-09T01:07:40.871Z,73945
2015-09-09T01:07:53.277Z,73947
2015-09-09T01:08:05.699Z,73952
2015-09-09T01:08:18.139Z,73945
2015-09-09T01:08:30.576Z,73955
2015-09-09T01:08:43.139Z,73949
2015-09-09T01:08:55.561Z,73945
2015-09-09T01:09:07.936Z,73943
2015-09-09T01:09:20.328Z,73948
2015-09-09T01:09:32.719Z,73949
2015-09-09T01:09:45.109Z,73949
2015-09-09T01:09:57.516Z,73950
2015-09-09T01:10:09.906Z,73946
2015-09-09T01:10:22.331Z,73949
2015-09-09T01:10:34.753Z,73949
2015-09-09T01:10:46.472Z,73944
2015-09-09T01:10:58.894Z,73949
2015-09-09T01:11:10.597Z,73945
2015-09-09T01:11:23.035Z,73956
2015-09-09T01:11:35.410Z,73949
2015-09-09T01:11:47.832Z,73948
2015-09-09T01:12:00.238Z,73941
2015-09-09T01:12:12.660Z,73948
2015-09-09T01:12:25.069Z,73947
2015-09-09T01:12:37.506Z,73951
2015-09-09T01:12:50.037Z,73949
2015-09-09T01:13:02.459Z,73945
2015-09-09T01:13:14.881Z,73948
2015-09-09T01:13:27.305Z,73942
2015-09-09T01:13:39.727Z,73953
2015-09-09T01:13:52.149Z,73941
2015-09-09T01:14:04.649Z,73939
2015-09-09T01:14:17.071Z,73947
2015-09-09T01:14:29.479Z,73939
2015-09-09T01:14:41.916Z,73939
2015-09-09T01:14:53.713Z,73948
2015-09-09T01:15:06.119Z,73947
2015-09-09T01:15:18.526Z,73949
2015-09-09T01:15:30.934Z,73955
2015-09-09T01:15:43.371Z,73941
2015-09-09T01:15:55.840Z,73949
2015-09-09T01:16:08.340Z,73946
2015-09-09T01:16:20.731Z,73947
2015-09-09T01:16:33.123Z,73947
2015-09-09T01:16:45.514Z,73943
2015-09-09T01:16:57.905Z,73944
2015-09-09T01:17:09.592Z,73944
2015-09-09T01:17:21.985Z,73948
2015-09-09T01:17:34.516Z,73942
2015-09-09T01:17:46.938Z,73940
2015-09-09T01:17:59.360Z,73944
2015-09-09T01:18:11.813Z,73940
2015-09-09T01:18:24.237Z,73955
2015-09-09T01:18:36.659Z,73953
2015-09-09T01:18:49.096Z,73947
2015-09-09T01:19:01.549Z,73954
2015-09-09T01:19:13.956Z,73940
2015-09-09T01:19:26.364Z,73952
2015-09-09T01:19:38.754Z,73937
2015-09-09T01:19:51.145Z,73950
2015-09-09T01:20:03.551Z,73942
2015-09-09T01:20:15.958Z,73949
2015-09-09T01:20:28.366Z,73943
2015-09-09T01:20:40.788Z,73940
2015-09-09T01:20:53.272Z,73950
2015-09-09T01:21:05.772Z,73938
2015-09-09T01:21:18.194Z,73940
2015-09-09T01:21:30.587Z,73938
2015-09-09T01:21:42.977Z,73937
2015-09-09T01:21:55.399Z,73945
2015-09-09T01:22:07.790Z,73948
2015-09-09T01:22:20.227Z,73943
2015-09-09T01:22:32.619Z,73945
2015-09-09T01:22:45.025Z,73943
2015-09-09T01:22:57.431Z,73951
2015-09-09T01:23:09.853Z,73937
2015-09-09T01:23:22.338Z,73940
2015-09-09T01:23:34.762Z,73939
2015-09-09T01:23:47.184Z,73940
2015-09-09T01:23:59.591Z,73940
2015-09-09T01:24:11.981Z,73938
2015-09-09T01:24:24.403Z,73948
2015-09-09T01:24:36.858Z,73946
2015-09-09T01:24:49.327Z,73942
2015-09-09T01:25:01.718Z,73942
2015-09-09T01:25:14.202Z,73931
2015-09-09T01:25:26.655Z,73939
2015-09-09T01:25:39.063Z,73939
2015-09-09T01:25:51.516Z,73943
2015-09-09T01:26:03.938Z,73941
2015-09-09T01:26:16.360Z,73942
2015-09-09T01:26:28.829Z,73937
2015-09-09T01:26:41.300Z,73938
2015-09-09T01:26:53.003Z,73937
2015-09-09T01:27:05.409Z,73934
2015-09-09T01:27:17.800Z,73939
2015-09-09T01:27:30.206Z,73936
2015-09-09T01:27:42.599Z,73943
2015-09-09T01:27:55.005Z,73941
2015-09-09T01:28:07.411Z,73935
2015-09-09T01:28:19.927Z,73936
2015-09-09T01:28:32.349Z,73935
2015-09-09T01:28:45.022Z,73938
2015-09-09T01:28:57.460Z,73936
2015-09-09T01:29:09.882Z,73945
2015-09-09T01:29:22.319Z,73938
2015-09-09T01:29:34.804Z,73941
2015-09-09T01:29:47.211Z,73940
2015-09-09T01:29:59.602Z,73944
2015-09-09T01:30:12.008Z,73945
2015-09-09T01:30:24.477Z,73937
2015-09-09T01:30:36.945Z,73936
2015-09-09T01:30:49.354Z,73942
2015-09-09T01:31:01.775Z,73929
2015-09-09T01:31:14.197Z,73934
2015-09-09T01:31:26.619Z,73933
2015-09-09T01:31:39.010Z,73932
2015-09-09T01:31:51.419Z,73938
2015-09-09T01:32:03.825Z,73933
2015-09-09T01:32:15.513Z,73938
2015-09-09T01:32:27.903Z,73927
2015-09-09T01:32:40.310Z,73927
2015-09-09T01:32:52.718Z,73931
2015-09-09T01:33:05.124Z,73928
2015-09-09T01:33:17.546Z,73933
2015-09-09T01:33:29.296Z,73934
2015-09-09T01:33:41.655Z,73933
2015-09-09T01:33:54.094Z,73929
2015-09-09T01:34:06.531Z,73934
2015-09-09T01:34:18.922Z,73933
2015-09-09T01:34:31.313Z,73930
2015-09-09T01:34:43.735Z,73939
2015-09-09T01:34:56.222Z,73928
2015-09-09T01:35:08.659Z,73937
2015-09-09T01:35:21.081Z,73937
2015-09-09T01:35:33.488Z,73939
2015-09-09T01:35:45.894Z,73940
2015-09-09T01:35:58.332Z,73926
2015-09-09T01:36:10.770Z,73932
2015-09-09T01:36:23.176Z,73928
2015-09-09T01:36:35.567Z,73930
2015-09-09T01:36:48.020Z,73935
2015-09-09T01:37:00.492Z,73927
2015-09-09T01:37:12.882Z,73943
2015-09-09T01:37:25.273Z,73927
2015-09-09T01:37:37.679Z,73933
2015-09-09T01:37:50.085Z,73937
2015-09-09T01:38:02.493Z,73932
2015-09-09T01:38:15.008Z,73938
2015-09-09T01:38:27.430Z,73941
2015-09-09T01:38:39.852Z,73932
2015-09-09T01:38:52.305Z,73935
2015-09-09T01:39:04.745Z,73928
2015-09-09T01:39:17.198Z,73933
2015-09-09T01:39:29.588Z,73933
2015-09-09T01:39:41.995Z,73923
2015-09-09T01:39:54.404Z,73931
2015-09-09T01:40:06.794Z,73935
2015-09-09T01:40:19.248Z,73934
2015-09-09T01:40:31.716Z,73935
2015-09-09T01:40:44.154Z,73933
2015-09-09T01:40:56.609Z,73931
2015-09-09T01:41:09.031Z,73927
2015-09-09T01:41:21.453Z,73927
2015-09-09T01:41:33.984Z,73928
2015-09-09T01:41:46.375Z,73927
2015-09-09T01:41:58.783Z,73930
2015-09-09T01:42:11.173Z,73925
2015-09-09T01:42:22.845Z,73932
2015-09-09T01:42:35.252Z,73925
2015-09-09T01:42:47.673Z,73924
2015-09-09T01:43:00.128Z,73930
2015-09-09T01:43:12.549Z,73931
2015-09-09T01:43:24.987Z,73938
2015-09-09T01:43:37.424Z,73931
2015-09-09T01:43:49.878Z,73935
2015-09-09T01:44:02.286Z,73932
2015-09-09T01:44:14.676Z,73922
2015-09-09T01:44:27.083Z,73926
2015-09-09T01:44:38.755Z,73924
2015-09-09T01:44:51.161Z,73926
2015-09-09T01:45:03.601Z,73926
2015-09-09T01:45:16.008Z,73931
2015-09-09T01:45:28.414Z,73932
2015-09-09T01:45:40.820Z,73936
2015-09-09T01:45:53.242Z,73931
2015-09-09T01:46:05.680Z,73928
2015-09-09T01:46:18.087Z,73939
2015-09-09T01:46:30.524Z,73930
2015-09-09T01:46:42.930Z,73924
2015-09-09T01:46:55.337Z,73935
2015-09-09T01:47:07.746Z,73925
2015-09-09T01:47:20.137Z,73932
2015-09-09T01:47:32.527Z,73923
2015-09-09T01:47:44.933Z,73923
2015-09-09T01:47:57.340Z,73924
2015-09-09T01:48:09.747Z,73926
2015-09-09T01:48:22.184Z,73930
2015-09-09T01:48:34.700Z,73919
2015-09-09T01:48:47.106Z,73928
2015-09-09T01:48:59.497Z,73927
2015-09-09T01:49:11.890Z,73922
2015-09-09T01:49:24.343Z,73930
2015-09-09T01:49:36.749Z,73927
2015-09-09T01:49:49.155Z,73918
2015-09-09T01:50:01.624Z,73929
2015-09-09T01:50:14.079Z,73922
2015-09-09T01:50:26.485Z,73932
2015-09-09T01:50:38.907Z,73929
2015-09-09T01:50:51.313Z,73918
2015-09-09T01:51:03.579Z,73929
2015-09-09T01:51:16.019Z,73926
2015-09-09T01:51:28.534Z,73928
2015-09-09T01:51:40.815Z,73931
2015-09-09T01:51:53.362Z,73922
2015-09-09T01:52:05.769Z,73930
2015-09-09T01:52:18.208Z,73924
2015-09-09T01:52:30.708Z,73926
2015-09-09T01:52:43.130Z,73930
2015-09-09T01:52:55.583Z,73929
2015-09-09T01:53:07.974Z,73927
2015-09-09T01:53:20.366Z,73922
2015-09-09T01:53:32.757Z,73932
2015-09-09T01:53:45.226Z,73924
2015-09-09T01:53:57.648Z,73932
2015-09-09T01:54:10.054Z,73928
2015-09-09T01:54:22.462Z,73928
2015-09-09T01:54:34.868Z,73929
2015-09-09T01:54:47.290Z,73920
2015-09-09T01:54:59.728Z,73926
2015-09-09T01:55:12.152Z,73927
2015-09-09T01:55:24.589Z,73921
2015-09-09T01:55:36.995Z,73922
2015-09-09T01:55:49.386Z,73922
2015-09-09T01:56:01.777Z,73931
2015-09-09T01:56:14.169Z,73927
2015-09-09T01:56:26.575Z,73924
2015-09-09T01:56:39.013Z,73918
2015-09-09T01:56:51.513Z,73924
2015-09-09T01:57:03.919Z,73921
2015-09-09T01:57:16.359Z,73920
2015-09-09T01:57:28.781Z,73924
2015-09-09T01:57:41.202Z,73927
2015-09-09T01:57:53.640Z,73927
2015-09-09T01:58:06.046Z,73923
2015-09-09T01:58:18.469Z,73930
2015-09-09T01:58:30.891Z,73923
2015-09-09T01:58:43.328Z,73932
2015-09-09T01:58:55.735Z,73926
2015-09-09T01:59:08.125Z,73931
2015-09-09T01:59:20.534Z,73929
2015-09-09T01:59:32.940Z,73927
2015-09-09T01:59:45.471Z,73921
2015-09-09T01:59:57.909Z,73924
2015-09-09T02:00:10.315Z,73929
2015-09-09T02:00:22.707Z,73924
2015-09-09T02:00:35.098Z,73930
2015-09-09T02:00:47.504Z,73921
2015-09-09T02:00:59.957Z,73929
2015-09-09T02:01:12.411Z,73923
2015-09-09T02:01:24.101Z,73929
2015-09-09T02:01:36.492Z,73924
2015-09-09T02:01:48.882Z,73921
2015-09-09T02:02:01.304Z,73930
2015-09-09T02:02:13.726Z,73919
2015-09-09T02:02:26.150Z,73930
2015-09-09T02:02:38.603Z,73922
2015-09-09T02:02:51.009Z,73916
2015-09-09T02:03:03.384Z,73925
2015-09-09T02:03:15.791Z,73919
2015-09-09T02:03:28.198Z,73926
2015-09-09T02:03:40.588Z,73918
2015-09-09T02:03:53.010Z,73925
2015-09-09T02:04:05.510Z,73924
2015-09-09T02:04:17.917Z,73924
2015-09-09T02:04:30.325Z,73922
2015-09-09T02:04:42.778Z,73927
2015-09-09T02:04:55.278Z,73914
2015-09-09T02:05:07.747Z,73918
2015-09-09T02:05:20.137Z,73928
2015-09-09T02:05:32.562Z,73918
2015-09-09T02:05:44.953Z,73921
2015-09-09T02:05:57.343Z,73917
2015-09-09T02:06:09.765Z,73921
2015-09-09T02:06:22.203Z,73916
2015-09-09T02:06:34.627Z,73921
2015-09-09T02:06:47.049Z,73915
2015-09-09T02:06:59.486Z,73920
2015-09-09T02:07:11.892Z,73913
2015-09-09T02:07:23.564Z,73918
2015-09-09T02:07:35.971Z,73916
2015-09-09T02:07:48.362Z,73919
2015-09-09T02:08:00.753Z,73916
2015-09-09T02:08:13.190Z,73921
2015-09-09T02:08:25.612Z,73917
2015-09-09T02:08:38.020Z,73910
2015-09-09T02:08:50.442Z,73914
2015-09-09T02:09:02.161Z,73908
2015-09-09T02:09:14.583Z,73914
2015-09-09T02:09:27.005Z,73911
2015-09-09T02:09:39.460Z,73914
2015-09-09T02:09:51.850Z,73911
2015-09-09T02:10:04.241Z,73913
2015-09-09T02:10:16.647Z,73916
2015-09-09T02:10:28.335Z,73909
2015-09-09T02:10:40.727Z,73909
2015-09-09T02:10:53.118Z,73918
2015-09-09T02:11:05.618Z,73907
2015-09-09T02:11:18.102Z,73910
2015-09-09T02:11:30.540Z,73910
2015-09-09T02:11:42.964Z,73911
2015-09-09T02:11:55.401Z,73906
2015-09-09T02:12:07.792Z,73905
2015-09-09T02:12:20.183Z,73906
2015-09-09T02:12:31.948Z,73909
2015-09-09T02:12:44.356Z,73907
2015-09-09T02:12:56.747Z,73918
2015-09-09T02:13:09.138Z,73907
2015-09-09T02:13:21.544Z,73909
2015-09-09T02:13:33.981Z,73905
2015-09-09T02:13:46.390Z,73905
2015-09-09T02:13:58.812Z,73901
2015-09-09T02:14:11.280Z,73904
2015-09-09T02:14:23.718Z,73904
2015-09-09T02:14:36.110Z,73904
2015-09-09T02:14:48.532Z,73905
2015-09-09T02:15:00.923Z,73900
2015-09-09T02:15:13.329Z,73905
2015-09-09T02:15:25.720Z,73898
2015-09-09T02:15:38.111Z,73906
2015-09-09T02:15:49.815Z,73902
2015-09-09T02:16:02.236Z,73910
2015-09-09T02:16:13.940Z,73901
2015-09-09T02:16:26.408Z,73909
2015-09-09T02:16:38.833Z,73899
2015-09-09T02:16:51.099Z,73905
2015-09-09T02:17:03.536Z,73903
2015-09-09T02:17:15.927Z,73902
2015-09-09T02:17:28.318Z,73899
2015-09-09T02:17:40.710Z,73901
2015-09-09T02:17:53.163Z,73895
2015-09-09T02:18:05.554Z,73897
2015-09-09T02:18:17.945Z,73900
2015-09-09T02:18:30.429Z,73897
2015-09-09T02:18:42.867Z,73894
2015-09-09T02:18:55.289Z,73903
2015-09-09T02:19:07.727Z,73904
2015-09-09T02:19:20.149Z,73896
2015-09-09T02:19:32.571Z,73893
2015-09-09T02:19:45.042Z,73899
2015-09-09T02:19:57.433Z,73898
2015-09-09T02:20:09.667Z,73899
2015-09-09T02:20:22.058Z,73893
2015-09-09T02:20:34.449Z,73896
2015-09-09T02:20:46.856Z,73898
2015-09-09T02:20:59.278Z,73907
2015-09-09T02:21:11.684Z,73894
2015-09-09T02:21:24.090Z,73897
2015-09-09T02:21:36.512Z,73903
2015-09-09T02:21:48.953Z,73891
2015-09-09T02:22:00.656Z,73903
2015-09-09T02:22:13.093Z,73895
2015-09-09T02:22:25.484Z,73904
2015-09-09T02:22:37.874Z,73892
2015-09-09T02:22:50.282Z,73895
2015-09-09T02:23:02.672Z,73896
2015-09-09T02:23:15.094Z,73897
2015-09-09T02:23:27.500Z,73900
2015-09-09T02:23:39.907Z,73903
2015-09-09T02:23:52.347Z,73902
2015-09-09T02:24:04.769Z,73898
2015-09-09T02:24:17.207Z,73896
2015-09-09T02:24:29.613Z,73890
2015-09-09T02:24:42.003Z,73904
2015-09-09T02:24:54.412Z,73896
2015-09-09T02:25:06.802Z,73897
2015-09-09T02:25:19.209Z,73896
2015-09-09T02:25:31.615Z,73896
2015-09-09T02:25:44.021Z,73904
2015-09-09T02:25:56.445Z,73898
2015-09-09T02:26:08.867Z,73904
2015-09-09T02:26:21.289Z,73892
2015-09-09T02:26:33.757Z,73894
2015-09-09T02:26:46.211Z,73899
2015-09-09T02:26:58.618Z,73899
2015-09-09T02:27:11.008Z,73903
2015-09-09T02:27:23.415Z,73901
2015-09-09T02:27:35.102Z,73904
2015-09-09T02:27:47.493Z,73896
2015-09-09T02:27:59.901Z,73903
2015-09-09T02:28:12.198Z,73894
2015-09-09T02:28:24.604Z,73899
2015-09-09T02:28:37.026Z,73902
2015-09-09T02:28:49.448Z,73898
2015-09-09T02:29:01.842Z,73899
2015-09-09T02:29:14.232Z,73897
2015-09-09T02:29:26.623Z,73899
2015-09-09T02:29:39.013Z,73907
2015-09-09T02:29:51.451Z,73895
2015-09-09T02:30:03.905Z,73898
2015-09-09T02:30:16.311Z,73900
2015-09-09T02:30:28.718Z,73902
2015-09-09T02:30:41.139Z,73903
2015-09-09T02:30:53.561Z,73895
2015-09-09T02:31:05.985Z,73901
2015-09-09T02:31:18.391Z,73898
2015-09-09T02:31:30.782Z,73898
2015-09-09T02:31:43.251Z,73906
2015-09-09T02:31:55.673Z,73908
2015-09-09T02:32:08.065Z,73905
2015-09-09T02:32:20.472Z,73899
2015-09-09T02:32:32.862Z,73898
2015-09-09T02:32:45.284Z,73900
2015-09-09T02:32:57.706Z,73895
2015-09-09T02:33:10.162Z,73904
2015-09-09T02:33:22.584Z,73891
2015-09-09T02:33:35.006Z,73902
2015-09-09T02:33:47.396Z,73894
2015-09-09T02:33:59.882Z,73900
2015-09-09T02:34:12.319Z,73892
2015-09-09T02:34:24.726Z,73893
2015-09-09T02:34:37.116Z,73894
2015-09-09T02:34:49.507Z,73899
2015-09-09T02:35:01.915Z,73897
2015-09-09T02:35:14.321Z,73898
2015-09-09T02:35:26.790Z,73907
2015-09-09T02:35:39.228Z,73893
2015-09-09T02:35:51.649Z,73890
2015-09-09T02:36:04.043Z,73899
2015-09-09T02:36:16.434Z,73897
2015-09-09T02:36:28.824Z,73899
2015-09-09T02:36:41.231Z,73901
2015-09-09T02:36:53.637Z,73898
2015-09-09T02:37:06.107Z,73902
2015-09-09T02:37:18.528Z,73891
2015-09-09T02:37:30.919Z,73900
2015-09-09T02:37:43.341Z,73900
2015-09-09T02:37:55.778Z,73889
2015-09-09T02:38:08.202Z,73901
2015-09-09T02:38:20.718Z,73897
2015-09-09T02:38:33.140Z,73902
2015-09-09T02:38:45.530Z,73898
2015-09-09T02:38:57.921Z,73902
2015-09-09T02:39:10.314Z,73900
2015-09-09T02:39:22.704Z,73901
2015-09-09T02:39:35.095Z,73898